MUCU/SCU METAR and TAF weather

Enter ICAO airport designator
Station Type Date Time Source
MUCU METAR 2019/12/07 04:51 UTC NOAA

MUCU 070451Z 35009KT 9000 FEW020 24/19 Q1018


Station Type Date Time Source
MUCU Decoded METAR 2019/12/07 04:51 UTC NOAA

Santiago De Cuba, Oriente, Cuba (MUCU) 19-58N 075-51W 55M
Dec 06, 2019 - 11:51 PM EST / 2019.12.07 0451 UTC
Wind: from the N (350 degrees) at 10 MPH (9 KT):0
Visibility: 5 mile(s):0
Sky conditions: mostly clear
Temperature: 75 F (24 C)
Dew Point: 66 F (19 C)
Relative Humidity: 73%
Pressure (altimeter): 30.06 in. Hg (1018 hPa)
ob: MUCU 070451Z 35009KT 9000 FEW020 24/19 Q1018
cycle: 5

Station Type Date Time Source
MUCU TAF 2019/12/07 06:03 UTC NOAA

TAF MUCU 070500Z 0706/0806 36008KT 9000 FEW020
BECMG 0715/0717 VRB03KT
BECMG 0800/0802 36010KT

Example: see airport list